sensor_id;sensor_type;location;lat;lon;timestamp;P1;durP1;ratioP1;P2;durP2;ratioP2
12480;SDS011;6305;48.398;11.762;2023-01-29T00:01:30;21.97;;;11.93;;
12480;SDS011;6305;48.398;11.762;2023-01-29T00:03:57;25.33;;;12.57;;
12480;SDS011;6305;48.398;11.762;2023-01-29T00:06:25;22.13;;;11.60;;
12480;SDS011;6305;48.398;11.762;2023-01-29T00:08:52;22.43;;;11.33;;
12480;SDS011;6305;48.398;11.762;2023-01-29T00:11:19;21.17;;;10.93;;
12480;SDS011;6305;48.398;11.762;2023-01-29T00:13:46;20.07;;;10.93;;
12480;SDS011;6305;48.398;11.762;2023-01-29T00:16:12;22.30;;;12.33;;
12480;SDS011;6305;48.398;11.762;2023-01-29T00:18:39;20.93;;;10.90;;
12480;SDS011;6305;48.398;11.762;2023-01-29T00:21:07;25.40;;;11.87;;
12480;SDS011;6305;48.398;11.762;2023-01-29T00:23:36;23.20;;;11.03;;
12480;SDS011;6305;48.398;11.762;2023-01-29T00:26:04;20.73;;;11.63;;
12480;SDS011;6305;48.398;11.762;2023-01-29T00:28:31;22.00;;;11.27;;
12480;SDS011;6305;48.398;11.762;2023-01-29T00:31:05;21.63;;;11.27;;
12480;SDS011;6305;48.398;11.762;2023-01-29T00:33:33;22.53;;;11.30;;
12480;SDS011;6305;48.398;11.762;2023-01-29T00:36:01;22.47;;;11.37;;
12480;SDS011;6305;48.398;11.762;2023-01-29T00:38:28;21.57;;;12.07;;
12480;SDS011;6305;48.398;11.762;2023-01-29T00:40:57;20.70;;;11.57;;
12480;SDS011;6305;48.398;11.762;2023-01-29T00:43:42;23.00;;;11.97;;
12480;SDS011;6305;48.398;11.762;2023-01-29T00:46:26;21.37;;;11.30;;
12480;SDS011;6305;48.398;11.762;2023-01-29T00:48:53;21.10;;;10.90;;
12480;SDS011;6305;48.398;11.762;2023-01-29T00:51:19;20.60;;;11.57;;
12480;SDS011;6305;48.398;11.762;2023-01-29T00:53:46;20.33;;;10.70;;
12480;SDS011;6305;48.398;11.762;2023-01-29T00:56:14;18.93;;;10.73;;
12480;SDS011;6305;48.398;11.762;2023-01-29T00:58:41;22.27;;;11.00;;
12480;SDS011;6305;48.398;11.762;2023-01-29T01:01:08;16.47;;;10.33;;
12480;SDS011;6305;48.398;11.762;2023-01-29T01:03:35;19.57;;;10.57;;
12480;SDS011;6305;48.398;11.762;2023-01-29T01:06:07;16.90;;;10.80;;
12480;SDS011;6305;48.398;11.762;2023-01-29T01:08:35;18.70;;;10.63;;
12480;SDS011;6305;48.398;11.762;2023-01-29T01:11:21;17.47;;;10.33;;
12480;SDS011;6305;48.398;11.762;2023-01-29T01:13:48;17.93;;;10.20;;
12480;SDS011;6305;48.398;11.762;2023-01-29T01:16:18;15.53;;;9.77;;
12480;SDS011;6305;48.398;11.762;2023-01-29T01:18:45;18.87;;;10.83;;
12480;SDS011;6305;48.398;11.762;2023-01-29T01:21:12;18.93;;;10.73;;
12480;SDS011;6305;48.398;11.762;2023-01-29T01:23:39;17.87;;;10.30;;
12480;SDS011;6305;48.398;11.762;2023-01-29T01:26:07;16.93;;;9.97;;
12480;SDS011;6305;48.398;11.762;2023-01-29T01:28:37;20.03;;;10.90;;
12480;SDS011;6305;48.398;11.762;2023-01-29T01:31:08;20.23;;;10.90;;
12480;SDS011;6305;48.398;11.762;2023-01-29T01:33:36;16.00;;;9.90;;
12480;SDS011;6305;48.398;11.762;2023-01-29T01:36:03;16.80;;;10.40;;
12480;SDS011;6305;48.398;11.762;2023-01-29T01:38:34;19.13;;;10.83;;
12480;SDS011;6305;48.398;11.762;2023-01-29T01:41:09;18.27;;;9.63;;
12480;SDS011;6305;48.398;11.762;2023-01-29T01:43:48;18.77;;;9.77;;
12480;SDS011;6305;48.398;11.762;2023-01-29T01:46:17;18.30;;;9.90;;
12480;SDS011;6305;48.398;11.762;2023-01-29T01:48:44;16.63;;;10.27;;
12480;SDS011;6305;48.398;11.762;2023-01-29T01:51:14;17.57;;;9.43;;
12480;SDS011;6305;48.398;11.762;2023-01-29T01:53:42;17.70;;;10.13;;
12480;SDS011;6305;48.398;11.762;2023-01-29T01:56:15;15.77;;;10.07;;
12480;SDS011;6305;48.398;11.762;2023-01-29T01:58:49;13.63;;;9.00;;
12480;SDS011;6305;48.398;11.762;2023-01-29T02:01:19;12.87;;;7.83;;
12480;SDS011;6305;48.398;11.762;2023-01-29T02:03:54;12.03;;;7.40;;
12480;SDS011;6305;48.398;11.762;2023-01-29T02:06:41;9.63;;;5.87;;
12480;SDS011;6305;48.398;11.762;2023-01-29T02:09:29;8.50;;;5.90;;
12480;SDS011;6305;48.398;11.762;2023-01-29T02:11:59;9.47;;;6.50;;
12480;SDS011;6305;48.398;11.762;2023-01-29T02:14:28;10.47;;;7.03;;
12480;SDS011;6305;48.398;11.762;2023-01-29T02:16:58;12.30;;;7.83;;
12480;SDS011;6305;48.398;11.762;2023-01-29T02:19:33;12.67;;;8.00;;
12480;SDS011;6305;48.398;11.762;2023-01-29T02:22:19;14.30;;;8.63;;
12480;SDS011;6305;48.398;11.762;2023-01-29T02:28:25;11.17;;;7.87;;
12480;SDS011;6305;48.398;11.762;2023-01-29T02:31:05;14.73;;;8.50;;
12480;SDS011;6305;48.398;11.762;2023-01-29T02:33:39;12.30;;;8.30;;
12480;SDS011;6305;48.398;11.762;2023-01-29T02:36:18;14.57;;;8.43;;
12480;SDS011;6305;48.398;11.762;2023-01-29T02:38:58;14.93;;;9.23;;
12480;SDS011;6305;48.398;11.762;2023-01-29T02:41:33;14.07;;;9.00;;
12480;SDS011;6305;48.398;11.762;2023-01-29T02:44:09;15.80;;;9.60;;
12480;SDS011;6305;48.398;11.762;2023-01-29T02:46:45;15.10;;;9.37;;
12480;SDS011;6305;48.398;11.762;2023-01-29T02:49:19;17.67;;;10.80;;
12480;SDS011;6305;48.398;11.762;2023-01-29T02:51:54;17.60;;;10.13;;
12480;SDS011;6305;48.398;11.762;2023-01-29T02:54:27;13.93;;;9.47;;
12480;SDS011;6305;48.398;11.762;2023-01-29T02:57:01;14.47;;;9.53;;
12480;SDS011;6305;48.398;11.762;2023-01-29T02:59:41;14.63;;;10.10;;
12480;SDS011;6305;48.398;11.762;2023-01-29T03:02:12;19.37;;;10.43;;
12480;SDS011;6305;48.398;11.762;2023-01-29T03:04:45;16.83;;;10.37;;
12480;SDS011;6305;48.398;11.762;2023-01-29T03:07:16;17.07;;;10.10;;
12480;SDS011;6305;48.398;11.762;2023-01-29T03:10:03;17.43;;;9.83;;
12480;SDS011;6305;48.398;11.762;2023-01-29T03:12:35;16.97;;;10.03;;
12480;SDS011;6305;48.398;11.762;2023-01-29T03:15:09;18.73;;;10.63;;
12480;SDS011;6305;48.398;11.762;2023-01-29T03:17:51;16.83;;;9.87;;
12480;SDS011;6305;48.398;11.762;2023-01-29T03:20:23;17.43;;;11.07;;
12480;SDS011;6305;48.398;11.762;2023-01-29T03:22:56;16.63;;;10.10;;
12480;SDS011;6305;48.398;11.762;2023-01-29T03:25:27;17.73;;;10.40;;
12480;SDS011;6305;48.398;11.762;2023-01-29T03:28:16;17.10;;;10.43;;
12480;SDS011;6305;48.398;11.762;2023-01-29T03:31:04;17.77;;;10.33;;
12480;SDS011;6305;48.398;11.762;2023-01-29T03:33:58;18.37;;;10.10;;
12480;SDS011;6305;48.398;11.762;2023-01-29T03:36:31;16.87;;;10.27;;
12480;SDS011;6305;48.398;11.762;2023-01-29T03:39:04;17.47;;;10.80;;
12480;SDS011;6305;48.398;11.762;2023-01-29T03:41:33;17.20;;;10.00;;
12480;SDS011;6305;48.398;11.762;2023-01-29T03:44:06;18.90;;;10.43;;
12480;SDS011;6305;48.398;11.762;2023-01-29T03:46:42;17.10;;;10.40;;
12480;SDS011;6305;48.398;11.762;2023-01-29T03:49:17;14.93;;;9.93;;
12480;SDS011;6305;48.398;11.762;2023-01-29T03:51:51;11.33;;;7.47;;
12480;SDS011;6305;48.398;11.762;2023-01-29T03:54:24;10.50;;;7.27;;
12480;SDS011;6305;48.398;11.762;2023-01-29T03:56:58;11.83;;;6.77;;
12480;SDS011;6305;48.398;11.762;2023-01-29T03:59:33;10.20;;;6.63;;
12480;SDS011;6305;48.398;11.762;2023-01-29T04:02:18;10.07;;;7.37;;
12480;SDS011;6305;48.398;11.762;2023-01-29T04:04:53;10.37;;;6.93;;
12480;SDS011;6305;48.398;11.762;2023-01-29T04:07:23;9.43;;;6.90;;
12480;SDS011;6305;48.398;11.762;2023-01-29T04:10:01;9.03;;;6.33;;
12480;SDS011;6305;48.398;11.762;2023-01-29T04:12:34;10.97;;;7.23;;
12480;SDS011;6305;48.398;11.762;2023-01-29T04:15:04;11.80;;;7.47;;
12480;SDS011;6305;48.398;11.762;2023-01-29T04:17:38;11.67;;;7.93;;
12480;SDS011;6305;48.398;11.762;2023-01-29T04:20:13;12.30;;;7.60;;
12480;SDS011;6305;48.398;11.762;2023-01-29T04:22:42;11.33;;;8.13;;
12480;SDS011;6305;48.398;11.762;2023-01-29T04:25:13;14.23;;;9.30;;
12480;SDS011;6305;48.398;11.762;2023-01-29T04:27:44;13.57;;;9.20;;
12480;SDS011;6305;48.398;11.762;2023-01-29T04:30:25;15.80;;;9.97;;
12480;SDS011;6305;48.398;11.762;2023-01-29T04:33:05;13.57;;;8.57;;
12480;SDS011;6305;48.398;11.762;2023-01-29T04:35:48;14.23;;;8.53;;
12480;SDS011;6305;48.398;11.762;2023-01-29T04:38:29;11.53;;;7.87;;
12480;SDS011;6305;48.398;11.762;2023-01-29T04:41:05;13.10;;;8.53;;
12480;SDS011;6305;48.398;11.762;2023-01-29T04:43:37;13.67;;;8.97;;
12480;SDS011;6305;48.398;11.762;2023-01-29T04:46:12;12.80;;;8.30;;
12480;SDS011;6305;48.398;11.762;2023-01-29T04:48:47;15.13;;;8.73;;
12480;SDS011;6305;48.398;11.762;2023-01-29T04:51:29;11.10;;;7.43;;
12480;SDS011;6305;48.398;11.762;2023-01-29T04:54:05;12.90;;;8.47;;
12480;SDS011;6305;48.398;11.762;2023-01-29T04:56:38;11.53;;;7.60;;
12480;SDS011;6305;48.398;11.762;2023-01-29T04:59:14;11.43;;;7.83;;
12480;SDS011;6305;48.398;11.762;2023-01-29T05:01:46;11.23;;;7.40;;
12480;SDS011;6305;48.398;11.762;2023-01-29T05:04:17;11.60;;;7.17;;
12480;SDS011;6305;48.398;11.762;2023-01-29T05:06:45;13.47;;;7.83;;
12480;SDS011;6305;48.398;11.762;2023-01-29T05:09:13;11.00;;;7.40;;
12480;SDS011;6305;48.398;11.762;2023-01-29T05:11:42;12.77;;;8.37;;
12480;SDS011;6305;48.398;11.762;2023-01-29T05:14:12;9.77;;;6.97;;
12480;SDS011;6305;48.398;11.762;2023-01-29T05:16:41;10.47;;;7.20;;
12480;SDS011;6305;48.398;11.762;2023-01-29T05:19:11;11.67;;;7.53;;
12480;SDS011;6305;48.398;11.762;2023-01-29T05:21:42;10.80;;;7.30;;
12480;SDS011;6305;48.398;11.762;2023-01-29T05:24:11;11.37;;;7.27;;
12480;SDS011;6305;48.398;11.762;2023-01-29T05:26:40;11.43;;;6.90;;
12480;SDS011;6305;48.398;11.762;2023-01-29T05:29:26;11.83;;;7.13;;
12480;SDS011;6305;48.398;11.762;2023-01-29T05:31:52;9.23;;;6.97;;
12480;SDS011;6305;48.398;11.762;2023-01-29T05:34:19;9.40;;;6.17;;
12480;SDS011;6305;48.398;11.762;2023-01-29T05:36:48;10.63;;;6.43;;
12480;SDS011;6305;48.398;11.762;2023-01-29T05:39:15;10.13;;;6.80;;
12480;SDS011;6305;48.398;11.762;2023-01-29T05:41:42;11.17;;;6.90;;
12480;SDS011;6305;48.398;11.762;2023-01-29T05:44:09;9.60;;;6.73;;
12480;SDS011;6305;48.398;11.762;2023-01-29T05:46:36;8.83;;;6.13;;
12480;SDS011;6305;48.398;11.762;2023-01-29T05:49:03;8.50;;;6.17;;
12480;SDS011;6305;48.398;11.762;2023-01-29T05:51:30;10.10;;;6.10;;
12480;SDS011;6305;48.398;11.762;2023-01-29T05:53:59;8.87;;;6.07;;
12480;SDS011;6305;48.398;11.762;2023-01-29T05:56:26;9.10;;;5.80;;
12480;SDS011;6305;48.398;11.762;2023-01-29T05:58:53;7.33;;;5.30;;
12480;SDS011;6305;48.398;11.762;2023-01-29T06:01:21;9.47;;;5.37;;
12480;SDS011;6305;48.398;11.762;2023-01-29T06:03:49;7.77;;;5.50;;
12480;SDS011;6305;48.398;11.762;2023-01-29T06:06:16;6.57;;;4.73;;
12480;SDS011;6305;48.398;11.762;2023-01-29T06:08:43;9.13;;;5.60;;
12480;SDS011;6305;48.398;11.762;2023-01-29T06:11:12;7.47;;;4.70;;
12480;SDS011;6305;48.398;11.762;2023-01-29T06:13:40;7.57;;;5.07;;
12480;SDS011;6305;48.398;11.762;2023-01-29T06:16:07;8.23;;;4.73;;
12480;SDS011;6305;48.398;11.762;2023-01-29T06:18:35;7.37;;;5.30;;
12480;SDS011;6305;48.398;11.762;2023-01-29T06:21:03;8.47;;;5.90;;
12480;SDS011;6305;48.398;11.762;2023-01-29T06:23:32;8.20;;;5.20;;
12480;SDS011;6305;48.398;11.762;2023-01-29T06:25:59;9.20;;;5.17;;
12480;SDS011;6305;48.398;11.762;2023-01-29T06:28:28;7.07;;;5.10;;
12480;SDS011;6305;48.398;11.762;2023-01-29T06:30:55;7.10;;;4.80;;
12480;SDS011;6305;48.398;11.762;2023-01-29T06:33:23;8.87;;;5.57;;
12480;SDS011;6305;48.398;11.762;2023-01-29T06:35:54;8.57;;;6.00;;
12480;SDS011;6305;48.398;11.762;2023-01-29T06:38:22;7.70;;;6.00;;
12480;SDS011;6305;48.398;11.762;2023-01-29T06:40:49;11.97;;;8.10;;
12480;SDS011;6305;48.398;11.762;2023-01-29T06:43:16;11.00;;;7.33;;
12480;SDS011;6305;48.398;11.762;2023-01-29T06:45:48;10.70;;;7.53;;
12480;SDS011;6305;48.398;11.762;2023-01-29T06:48:16;11.00;;;8.17;;
12480;SDS011;6305;48.398;11.762;2023-01-29T06:50:43;11.10;;;7.50;;
12480;SDS011;6305;48.398;11.762;2023-01-29T06:53:10;12.80;;;8.40;;
12480;SDS011;6305;48.398;11.762;2023-01-29T06:55:37;10.33;;;7.83;;
12480;SDS011;6305;48.398;11.762;2023-01-29T06:58:04;13.80;;;8.33;;
12480;SDS011;6305;48.398;11.762;2023-01-29T07:00:32;13.73;;;7.97;;
12480;SDS011;6305;48.398;11.762;2023-01-29T07:03:01;12.33;;;7.87;;
12480;SDS011;6305;48.398;11.762;2023-01-29T07:05:28;11.13;;;7.37;;
12480;SDS011;6305;48.398;11.762;2023-01-29T07:07:55;9.83;;;7.17;;
12480;SDS011;6305;48.398;11.762;2023-01-29T07:10:22;10.53;;;7.53;;
12480;SDS011;6305;48.398;11.762;2023-01-29T07:12:49;10.50;;;7.40;;
12480;SDS011;6305;48.398;11.762;2023-01-29T07:15:16;9.60;;;7.03;;
12480;SDS011;6305;48.398;11.762;2023-01-29T07:17:54;10.60;;;7.37;;
12480;SDS011;6305;48.398;11.762;2023-01-29T07:20:24;10.00;;;6.53;;
12480;SDS011;6305;48.398;11.762;2023-01-29T07:22:51;9.30;;;6.70;;
12480;SDS011;6305;48.398;11.762;2023-01-29T07:25:18;9.30;;;6.67;;
12480;SDS011;6305;48.398;11.762;2023-01-29T07:27:45;9.77;;;6.87;;
12480;SDS011;6305;48.398;11.762;2023-01-29T07:30:13;11.23;;;7.77;;
12480;SDS011;6305;48.398;11.762;2023-01-29T07:32:40;10.67;;;7.53;;
12480;SDS011;6305;48.398;11.762;2023-01-29T07:35:07;11.00;;;7.93;;
12480;SDS011;6305;48.398;11.762;2023-01-29T07:37:36;9.33;;;7.07;;
12480;SDS011;6305;48.398;11.762;2023-01-29T07:40:03;10.90;;;7.53;;
12480;SDS011;6305;48.398;11.762;2023-01-29T07:42:35;10.23;;;7.00;;
12480;SDS011;6305;48.398;11.762;2023-01-29T07:45:03;11.00;;;7.80;;
12480;SDS011;6305;48.398;11.762;2023-01-29T07:47:31;10.60;;;7.53;;
12480;SDS011;6305;48.398;11.762;2023-01-29T07:49:57;9.70;;;7.40;;
12480;SDS011;6305;48.398;11.762;2023-01-29T07:52:24;11.10;;;7.80;;
12480;SDS011;6305;48.398;11.762;2023-01-29T07:54:53;12.53;;;8.20;;
12480;SDS011;6305;48.398;11.762;2023-01-29T07:57:20;12.50;;;8.13;;
12480;SDS011;6305;48.398;11.762;2023-01-29T07:59:47;10.50;;;7.20;;
12480;SDS011;6305;48.398;11.762;2023-01-29T08:02:13;11.50;;;8.10;;
12480;SDS011;6305;48.398;11.762;2023-01-29T08:04:40;10.23;;;7.33;;
12480;SDS011;6305;48.398;11.762;2023-01-29T08:07:07;11.07;;;7.90;;
12480;SDS011;6305;48.398;11.762;2023-01-29T08:09:34;11.17;;;7.63;;
12480;SDS011;6305;48.398;11.762;2023-01-29T08:12:02;11.03;;;7.67;;
12480;SDS011;6305;48.398;11.762;2023-01-29T08:14:30;13.93;;;7.77;;
12480;SDS011;6305;48.398;11.762;2023-01-29T08:16:56;10.60;;;7.33;;
12480;SDS011;6305;48.398;11.762;2023-01-29T08:19:23;13.00;;;8.03;;
12480;SDS011;6305;48.398;11.762;2023-01-29T08:21:50;12.83;;;8.23;;
12480;SDS011;6305;48.398;11.762;2023-01-29T08:24:17;12.23;;;7.83;;
12480;SDS011;6305;48.398;11.762;2023-01-29T08:26:44;12.13;;;8.40;;
12480;SDS011;6305;48.398;11.762;2023-01-29T08:29:12;11.80;;;7.83;;
12480;SDS011;6305;48.398;11.762;2023-01-29T08:31:39;11.20;;;8.23;;
12480;SDS011;6305;48.398;11.762;2023-01-29T08:34:06;11.00;;;7.30;;
12480;SDS011;6305;48.398;11.762;2023-01-29T08:36:33;10.50;;;7.50;;
12480;SDS011;6305;48.398;11.762;2023-01-29T08:39:00;12.63;;;7.97;;
12480;SDS011;6305;48.398;11.762;2023-01-29T08:41:27;11.20;;;7.30;;
12480;SDS011;6305;48.398;11.762;2023-01-29T08:43:54;8.37;;;6.60;;
12480;SDS011;6305;48.398;11.762;2023-01-29T08:46:23;11.13;;;7.23;;
12480;SDS011;6305;48.398;11.762;2023-01-29T08:48:49;9.90;;;7.10;;
12480;SDS011;6305;48.398;11.762;2023-01-29T08:51:17;11.40;;;8.00;;
12480;SDS011;6305;48.398;11.762;2023-01-29T08:53:44;11.67;;;7.97;;
12480;SDS011;6305;48.398;11.762;2023-01-29T08:56:10;10.97;;;7.83;;
12480;SDS011;6305;48.398;11.762;2023-01-29T08:58:37;11.93;;;8.53;;
12480;SDS011;6305;48.398;11.762;2023-01-29T09:01:04;12.63;;;8.67;;
12480;SDS011;6305;48.398;11.762;2023-01-29T09:03:33;11.40;;;8.20;;
12480;SDS011;6305;48.398;11.762;2023-01-29T09:06:00;12.30;;;8.20;;
12480;SDS011;6305;48.398;11.762;2023-01-29T09:08:27;11.47;;;7.67;;
12480;SDS011;6305;48.398;11.762;2023-01-29T09:10:55;10.93;;;7.87;;
12480;SDS011;6305;48.398;11.762;2023-01-29T09:13:23;11.47;;;8.23;;
12480;SDS011;6305;48.398;11.762;2023-01-29T09:15:50;13.53;;;8.33;;
12480;SDS011;6305;48.398;11.762;2023-01-29T09:18:17;12.73;;;8.27;;
12480;SDS011;6305;48.398;11.762;2023-01-29T09:20:47;14.20;;;9.17;;
12480;SDS011;6305;48.398;11.762;2023-01-29T09:23:14;13.77;;;8.87;;
12480;SDS011;6305;48.398;11.762;2023-01-29T09:25:41;11.73;;;8.03;;
12480;SDS011;6305;48.398;11.762;2023-01-29T09:28:08;14.90;;;9.17;;
12480;SDS011;6305;48.398;11.762;2023-01-29T09:30:35;11.67;;;8.20;;
12480;SDS011;6305;48.398;11.762;2023-01-29T09:33:02;12.50;;;8.13;;
12480;SDS011;6305;48.398;11.762;2023-01-29T09:35:30;11.83;;;8.37;;
12480;SDS011;6305;48.398;11.762;2023-01-29T09:37:59;11.60;;;7.63;;
12480;SDS011;6305;48.398;11.762;2023-01-29T09:40:29;11.93;;;8.13;;
12480;SDS011;6305;48.398;11.762;2023-01-29T09:43:00;12.37;;;7.97;;
12480;SDS011;6305;48.398;11.762;2023-01-29T09:45:30;11.17;;;7.77;;
12480;SDS011;6305;48.398;11.762;2023-01-29T09:47:59;11.03;;;7.83;;
12480;SDS011;6305;48.398;11.762;2023-01-29T09:50:29;10.30;;;7.50;;
12480;SDS011;6305;48.398;11.762;2023-01-29T09:53:02;10.57;;;7.50;;
12480;SDS011;6305;48.398;11.762;2023-01-29T09:55:38;11.53;;;8.03;;
12480;SDS011;6305;48.398;11.762;2023-01-29T09:58:10;10.57;;;7.87;;
12480;SDS011;6305;48.398;11.762;2023-01-29T10:00:45;10.47;;;6.87;;
12480;SDS011;6305;48.398;11.762;2023-01-29T10:03:22;10.37;;;7.37;;
12480;SDS011;6305;48.398;11.762;2023-01-29T10:06:04;11.17;;;7.43;;
12480;SDS011;6305;48.398;11.762;2023-01-29T10:08:51;9.83;;;6.60;;
12480;SDS011;6305;48.398;11.762;2023-01-29T10:11:33;10.57;;;7.40;;
12480;SDS011;6305;48.398;11.762;2023-01-29T10:14:08;10.33;;;7.43;;
12480;SDS011;6305;48.398;11.762;2023-01-29T10:16:48;9.77;;;7.00;;
12480;SDS011;6305;48.398;11.762;2023-01-29T10:19:36;10.50;;;8.13;;
12480;SDS011;6305;48.398;11.762;2023-01-29T10:22:30;9.83;;;7.00;;
12480;SDS011;6305;48.398;11.762;2023-01-29T10:25:10;10.70;;;7.53;;
12480;SDS011;6305;48.398;11.762;2023-01-29T10:27:41;9.57;;;7.20;;
12480;SDS011;6305;48.398;11.762;2023-01-29T10:30:20;11.90;;;7.33;;
12480;SDS011;6305;48.398;11.762;2023-01-29T10:32:52;10.67;;;7.17;;
12480;SDS011;6305;48.398;11.762;2023-01-29T10:35:21;9.43;;;7.07;;
12480;SDS011;6305;48.398;11.762;2023-01-29T10:37:51;12.40;;;7.03;;
12480;SDS011;6305;48.398;11.762;2023-01-29T10:40:21;9.87;;;7.07;;
12480;SDS011;6305;48.398;11.762;2023-01-29T10:42:52;9.47;;;6.67;;
12480;SDS011;6305;48.398;11.762;2023-01-29T10:45:25;10.17;;;6.90;;
12480;SDS011;6305;48.398;11.762;2023-01-29T10:48:14;8.67;;;6.83;;
12480;SDS011;6305;48.398;11.762;2023-01-29T10:51:05;9.77;;;6.80;;
12480;SDS011;6305;48.398;11.762;2023-01-29T10:53:44;9.47;;;6.33;;
12480;SDS011;6305;48.398;11.762;2023-01-29T10:56:30;8.60;;;6.33;;
12480;SDS011;6305;48.398;11.762;2023-01-29T10:59:06;9.13;;;7.07;;
12480;SDS011;6305;48.398;11.762;2023-01-29T11:01:45;9.47;;;6.93;;
12480;SDS011;6305;48.398;11.762;2023-01-29T11:04:12;8.13;;;6.50;;
12480;SDS011;6305;48.398;11.762;2023-01-29T11:06:40;10.37;;;6.60;;
12480;SDS011;6305;48.398;11.762;2023-01-29T11:09:09;8.10;;;6.10;;
12480;SDS011;6305;48.398;11.762;2023-01-29T11:11:47;8.33;;;6.20;;
12480;SDS011;6305;48.398;11.762;2023-01-29T11:14:18;8.83;;;7.07;;
12480;SDS011;6305;48.398;11.762;2023-01-29T11:16:48;10.23;;;6.87;;
12480;SDS011;6305;48.398;11.762;2023-01-29T11:19:15;7.20;;;5.77;;
12480;SDS011;6305;48.398;11.762;2023-01-29T11:21:49;8.17;;;5.73;;
12480;SDS011;6305;48.398;11.762;2023-01-29T11:24:18;7.43;;;5.67;;
12480;SDS011;6305;48.398;11.762;2023-01-29T11:26:47;8.10;;;6.37;;
12480;SDS011;6305;48.398;11.762;2023-01-29T11:29:31;8.63;;;6.00;;
12480;SDS011;6305;48.398;11.762;2023-01-29T11:32:02;8.02;;;6.30;;
12480;SDS011;6305;48.398;11.762;2023-01-29T11:34:31;8.53;;;6.53;;
12480;SDS011;6305;48.398;11.762;2023-01-29T11:36:58;9.27;;;6.47;;
12480;SDS011;6305;48.398;11.762;2023-01-29T11:39:27;8.07;;;5.60;;
12480;SDS011;6305;48.398;11.762;2023-01-29T11:41:57;9.05;;;6.50;;
12480;SDS011;6305;48.398;11.762;2023-01-29T11:44:26;8.93;;;6.25;;
12480;SDS011;6305;48.398;11.762;2023-01-29T11:46:55;8.07;;;5.97;;
12480;SDS011;6305;48.398;11.762;2023-01-29T11:49:29;7.35;;;6.10;;
12480;SDS011;6305;48.398;11.762;2023-01-29T11:51:59;8.48;;;6.50;;
12480;SDS011;6305;48.398;11.762;2023-01-29T11:54:30;8.98;;;7.38;;
12480;SDS011;6305;48.398;11.762;2023-01-29T11:57:02;7.72;;;6.50;;
12480;SDS011;6305;48.398;11.762;2023-01-29T11:59:36;10.93;;;6.80;;
12480;SDS011;6305;48.398;11.762;2023-01-29T12:02:23;10.50;;;8.75;;
12480;SDS011;6305;48.398;11.762;2023-01-29T12:04:55;10.90;;;7.10;;
12480;SDS011;6305;48.398;11.762;2023-01-29T12:07:26;10.23;;;7.65;;
12480;SDS011;6305;48.398;11.762;2023-01-29T12:09:54;10.18;;;7.72;;
12480;SDS011;6305;48.398;11.762;2023-01-29T12:12:28;8.90;;;7.28;;
12480;SDS011;6305;48.398;11.762;2023-01-29T12:15:08;11.88;;;7.72;;
12480;SDS011;6305;48.398;11.762;2023-01-29T12:20:34;8.20;;;6.70;;
12480;SDS011;6305;48.398;11.762;2023-01-29T12:23:10;8.75;;;7.15;;
12480;SDS011;6305;48.398;11.762;2023-01-29T12:25:48;10.93;;;7.80;;
12480;SDS011;6305;48.398;11.762;2023-01-29T12:28:24;10.57;;;7.87;;
12480;SDS011;6305;48.398;11.762;2023-01-29T12:31:21;18.60;;;10.70;;
12480;SDS011;6305;48.398;11.762;2023-01-29T12:33:55;11.17;;;7.77;;
12480;SDS011;6305;48.398;11.762;2023-01-29T12:36:32;9.70;;;7.80;;
12480;SDS011;6305;48.398;11.762;2023-01-29T12:39:03;11.27;;;7.57;;
12480;SDS011;6305;48.398;11.762;2023-01-29T12:41:35;11.07;;;7.43;;
12480;SDS011;6305;48.398;11.762;2023-01-29T12:44:10;11.63;;;7.93;;
12480;SDS011;6305;48.398;11.762;2023-01-29T12:46:40;10.97;;;7.73;;
12480;SDS011;6305;48.398;11.762;2023-01-29T12:49:10;10.93;;;8.10;;
12480;SDS011;6305;48.398;11.762;2023-01-29T12:51:42;12.53;;;8.20;;
12480;SDS011;6305;48.398;11.762;2023-01-29T12:54:15;12.50;;;8.30;;
12480;SDS011;6305;48.398;11.762;2023-01-29T12:56:46;9.80;;;7.50;;
12480;SDS011;6305;48.398;11.762;2023-01-29T12:59:18;11.57;;;8.43;;
12480;SDS011;6305;48.398;11.762;2023-01-29T13:01:50;11.80;;;8.00;;
12480;SDS011;6305;48.398;11.762;2023-01-29T13:04:23;10.43;;;7.30;;
12480;SDS011;6305;48.398;11.762;2023-01-29T13:06:59;10.57;;;7.80;;
12480;SDS011;6305;48.398;11.762;2023-01-29T13:09:34;11.27;;;8.13;;
12480;SDS011;6305;48.398;11.762;2023-01-29T13:12:09;12.40;;;7.80;;
12480;SDS011;6305;48.398;11.762;2023-01-29T13:14:41;10.87;;;7.80;;
12480;SDS011;6305;48.398;11.762;2023-01-29T13:17:12;9.97;;;7.10;;
12480;SDS011;6305;48.398;11.762;2023-01-29T13:19:43;10.47;;;7.17;;
12480;SDS011;6305;48.398;11.762;2023-01-29T13:22:15;9.57;;;7.13;;
12480;SDS011;6305;48.398;11.762;2023-01-29T13:24:46;10.70;;;7.37;;
12480;SDS011;6305;48.398;11.762;2023-01-29T13:27:22;10.27;;;7.40;;
12480;SDS011;6305;48.398;11.762;2023-01-29T13:29:52;12.23;;;8.17;;
12480;SDS011;6305;48.398;11.762;2023-01-29T13:32:21;11.40;;;7.90;;
12480;SDS011;6305;48.398;11.762;2023-01-29T13:34:50;11.07;;;8.03;;
12480;SDS011;6305;48.398;11.762;2023-01-29T13:37:23;12.93;;;8.17;;
12480;SDS011;6305;48.398;11.762;2023-01-29T13:39:57;13.53;;;8.60;;
12480;SDS011;6305;48.398;11.762;2023-01-29T13:42:32;12.53;;;8.27;;
12480;SDS011;6305;48.398;11.762;2023-01-29T13:45:06;10.10;;;6.90;;
12480;SDS011;6305;48.398;11.762;2023-01-29T13:47:35;13.93;;;8.37;;
12480;SDS011;6305;48.398;11.762;2023-01-29T13:50:04;12.20;;;8.93;;
12480;SDS011;6305;48.398;11.762;2023-01-29T13:52:34;13.00;;;8.40;;
12480;SDS011;6305;48.398;11.762;2023-01-29T13:55:05;23.10;;;10.40;;
12480;SDS011;6305;48.398;11.762;2023-01-29T13:57:47;10.47;;;7.53;;
12480;SDS011;6305;48.398;11.762;2023-01-29T14:09:31;10.80;;;7.80;;
12480;SDS011;6305;48.398;11.762;2023-01-29T14:15:12;11.50;;;8.10;;
12480;SDS011;6305;48.398;11.762;2023-01-29T14:17:52;10.97;;;7.10;;
12480;SDS011;6305;48.398;11.762;2023-01-29T14:20:29;11.20;;;7.73;;
12480;SDS011;6305;48.398;11.762;2023-01-29T14:22:59;12.63;;;7.90;;
12480;SDS011;6305;48.398;11.762;2023-01-29T14:25:28;12.77;;;7.80;;
12480;SDS011;6305;48.398;11.762;2023-01-29T14:27:57;12.37;;;8.17;;
12480;SDS011;6305;48.398;11.762;2023-01-29T14:30:27;11.70;;;7.73;;
12480;SDS011;6305;48.398;11.762;2023-01-29T14:32:56;14.00;;;8.27;;
12480;SDS011;6305;48.398;11.762;2023-01-29T14:35:23;11.17;;;8.00;;
12480;SDS011;6305;48.398;11.762;2023-01-29T14:37:57;13.97;;;8.17;;
12480;SDS011;6305;48.398;11.762;2023-01-29T14:40:27;12.00;;;7.83;;
12480;SDS011;6305;48.398;11.762;2023-01-29T14:42:57;12.70;;;8.17;;
12480;SDS011;6305;48.398;11.762;2023-01-29T14:45:27;12.40;;;8.13;;
12480;SDS011;6305;48.398;11.762;2023-01-29T14:48:03;12.57;;;8.13;;
12480;SDS011;6305;48.398;11.762;2023-01-29T14:50:48;12.03;;;7.83;;
12480;SDS011;6305;48.398;11.762;2023-01-29T14:53:21;11.33;;;7.30;;
12480;SDS011;6305;48.398;11.762;2023-01-29T14:55:54;11.67;;;8.13;;
12480;SDS011;6305;48.398;11.762;2023-01-29T14:58:32;11.77;;;8.07;;
12480;SDS011;6305;48.398;11.762;2023-01-29T15:01:04;12.17;;;7.80;;
12480;SDS011;6305;48.398;11.762;2023-01-29T15:03:41;12.83;;;8.07;;
12480;SDS011;6305;48.398;11.762;2023-01-29T15:06:13;11.93;;;8.47;;
12480;SDS011;6305;48.398;11.762;2023-01-29T15:08:44;14.67;;;9.10;;
12480;SDS011;6305;48.398;11.762;2023-01-29T15:11:19;13.93;;;9.30;;
12480;SDS011;6305;48.398;11.762;2023-01-29T15:14:04;12.20;;;8.57;;
12480;SDS011;6305;48.398;11.762;2023-01-29T15:16:41;12.97;;;8.60;;
12480;SDS011;6305;48.398;11.762;2023-01-29T15:19:14;13.30;;;8.47;;
12480;SDS011;6305;48.398;11.762;2023-01-29T15:22:06;14.00;;;8.43;;